createdAt,value
2022-10-25T00:02:14.394Z,100289.31
2022-10-25T00:05:17.046Z,100286.91
2022-10-25T00:08:19.236Z,100290.88
2022-10-25T00:11:27.777Z,100303.00
2022-10-25T00:14:30.292Z,100314.69
2022-10-25T00:17:33.472Z,100317.53
2022-10-25T00:20:37.017Z,100325.84
2022-10-25T00:23:39.679Z,100338.16
2022-10-25T00:26:42.266Z,100342.78
2022-10-25T00:29:44.622Z,100342.00
2022-10-25T00:32:46.975Z,100323.91
2022-10-25T00:35:49.458Z,100325.56
2022-10-25T00:38:52.181Z,100329.41
2022-10-25T00:41:54.569Z,100327.81
2022-10-25T00:44:59.125Z,100323.94
2022-10-25T00:48:06.583Z,100322.72
2022-10-25T00:51:09.029Z,100322.56
2022-10-25T00:54:14.608Z,100329.28
2022-10-25T00:57:30.344Z,100346.22
2022-10-25T01:00:32.744Z,100342.72
2022-10-25T01:03:38.226Z,100349.44
2022-10-25T01:06:50.210Z,100353.53
2022-10-25T01:09:52.539Z,100365.81
2022-10-25T01:12:55.256Z,100352.50
2022-10-25T01:16:18.587Z,100355.22
2022-10-25T01:19:20.864Z,100353.22
2022-10-25T01:22:28.959Z,100355.31
2022-10-25T01:25:52.415Z,100346.84
2022-10-25T01:29:28.312Z,100345.47
2022-10-25T01:32:51.491Z,100339.34
2022-10-25T01:36:34.654Z,100343.31
2022-10-25T01:39:55.824Z,100346.84
2022-10-25T01:43:15.081Z,100350.03
2022-10-25T01:46:39.424Z,100342.47
2022-10-25T01:49:52.113Z,100352.03
2022-10-25T01:56:04.655Z,100341.53
2022-10-25T01:59:22.166Z,100341.72
2022-10-25T02:02:32.840Z,100349.09
2022-10-25T02:06:01.409Z,100348.31
2022-10-25T02:09:22.002Z,100333.91
2022-10-25T02:12:30.992Z,100325.16
2022-10-25T02:16:05.551Z,100326.09
2022-10-25T02:19:11.503Z,100326.09
2022-10-25T02:22:15.875Z,100318.72
2022-10-25T02:25:18.432Z,100321.91
2022-10-25T02:28:24.718Z,100329.34
2022-10-25T02:31:28.176Z,100325.69
2022-10-25T02:34:31.001Z,100317.72
2022-10-25T02:37:33.047Z,100316.28
2022-10-25T02:40:36.258Z,100319.19
2022-10-25T02:43:38.319Z,100308.41
2022-10-25T02:46:40.694Z,100327.09
2022-10-25T02:49:42.755Z,100316.06
2022-10-25T02:52:45.296Z,100313.53
2022-10-25T02:55:47.654Z,100324.09
2022-10-25T02:58:51.934Z,100327.12
2022-10-25T03:01:54.067Z,100335.00
2022-10-25T03:04:56.463Z,100336.81
2022-10-25T03:07:58.532Z,100343.53
2022-10-25T03:11:01.029Z,100340.06
2022-10-25T03:14:03.229Z,100336.25
2022-10-25T03:17:06.390Z,100331.91
2022-10-25T03:20:09.095Z,100341.00
2022-10-25T03:23:12.416Z,100350.28
2022-10-25T03:26:14.491Z,100330.47
2022-10-25T03:29:16.912Z,100326.75
2022-10-25T03:32:19.023Z,100329.69
2022-10-25T03:35:21.429Z,100335.31
2022-10-25T03:38:23.556Z,100337.22
2022-10-25T03:41:26.386Z,100351.59
2022-10-25T03:44:28.526Z,100356.56
2022-10-25T03:47:30.871Z,100342.84
2022-10-25T03:50:33.149Z,100344.09
2022-10-25T03:53:35.491Z,100352.72
2022-10-25T03:56:37.612Z,100350.62
2022-10-25T03:59:39.972Z,100335.59
2022-10-25T04:02:42.055Z,100330.31
2022-10-25T04:05:44.403Z,100321.66
2022-10-25T04:08:46.511Z,100317.97
2022-10-25T04:11:48.855Z,100325.00
2022-10-25T04:14:50.996Z,100330.25
2022-10-25T04:17:53.752Z,100332.16
2022-10-25T04:20:55.813Z,100332.50
2022-10-25T04:24:00.538Z,100315.44
2022-10-25T04:27:05.649Z,100329.00
2022-10-25T04:30:08.528Z,100328.03
2022-10-25T04:33:10.604Z,100328.84
2022-10-25T04:36:12.933Z,100327.19
2022-10-25T04:39:15.349Z,100326.06
2022-10-25T04:42:19.646Z,100331.81
2022-10-25T04:45:21.874Z,100327.78
2022-10-25T04:48:24.263Z,100330.50
2022-10-25T04:51:26.414Z,100329.38
2022-10-25T04:54:28.791Z,100335.75
2022-10-25T04:57:30.887Z,100337.34
2022-10-25T05:00:33.287Z,100337.19
2022-10-25T05:03:36.066Z,100346.16
2022-10-25T05:06:38.442Z,100342.50
2022-10-25T05:09:43.847Z,100347.75
2022-10-25T05:12:49.233Z,100342.78
2022-10-25T05:15:58.001Z,100353.13
2022-10-25T05:19:01.184Z,100347.88
2022-10-25T05:22:03.429Z,100345.97
2022-10-25T05:25:06.442Z,100346.22
2022-10-25T05:28:08.523Z,100339.00
2022-10-25T05:31:20.133Z,100346.50
2022-10-25T05:34:22.185Z,100365.81
2022-10-25T05:37:24.532Z,100377.47
2022-10-25T05:40:26.637Z,100394.59
2022-10-25T05:43:29.129Z,100391.19
2022-10-25T05:46:31.428Z,100402.22
2022-10-25T05:49:39.478Z,100411.62
2022-10-25T05:52:45.006Z,100422.03
2022-10-25T05:55:47.645Z,100435.03
2022-10-25T05:58:50.390Z,100448.62
2022-10-25T06:01:52.845Z,100446.50
2022-10-25T06:04:55.262Z,100446.13
2022-10-25T06:07:57.317Z,100443.09
2022-10-25T06:11:05.073Z,100435.06
2022-10-25T06:14:10.262Z,100436.00
2022-10-25T06:17:13.704Z,100449.94
2022-10-25T06:20:15.845Z,100459.00
2022-10-25T06:23:18.250Z,100471.00
2022-10-25T06:26:28.425Z,100466.03
2022-10-25T06:29:32.364Z,100472.41
2022-10-25T06:32:36.877Z,100484.09
2022-10-25T06:35:39.186Z,100495.13
2022-10-25T06:38:41.315Z,100488.09
2022-10-25T06:41:43.654Z,100490.94
2022-10-25T06:44:45.791Z,100482.69
2022-10-25T06:47:48.172Z,100480.06
2022-10-25T06:51:09.101Z,100481.34
2022-10-25T06:54:11.502Z,100494.47
2022-10-25T06:57:13.578Z,100488.13
2022-10-25T07:00:16.200Z,100488.91
2022-10-25T07:03:18.369Z,100479.88
2022-10-25T07:06:29.535Z,100475.22
2022-10-25T07:09:31.713Z,100469.12
2022-10-25T07:12:37.990Z,100471.88
2022-10-25T07:15:42.165Z,100471.63
2022-10-25T07:18:45.281Z,100477.09
2022-10-25T07:21:47.629Z,100479.25
2022-10-25T07:24:50.038Z,100479.41
2022-10-25T07:27:52.195Z,100488.37
2022-10-25T07:30:54.640Z,100485.44
2022-10-25T07:34:02.147Z,100496.94
2022-10-25T07:37:05.236Z,100496.59
2022-10-25T07:40:07.787Z,100499.13
2022-10-25T07:43:10.457Z,100500.94
2022-10-25T07:46:12.938Z,100506.41
2022-10-25T07:49:15.376Z,100512.09
2022-10-25T07:52:17.451Z,100518.03
2022-10-25T07:55:19.758Z,100515.66
2022-10-25T07:58:22.127Z,100525.91
2022-10-25T08:01:28.056Z,100523.31
2022-10-25T08:04:32.897Z,100525.28
2022-10-25T08:07:35.768Z,100534.84
2022-10-25T08:10:38.461Z,100531.38
2022-10-25T08:13:40.913Z,100522.28
2022-10-25T08:16:43.267Z,100529.09
2022-10-25T08:19:50.199Z,100534.66
2022-10-25T08:22:58.572Z,100530.25
2022-10-25T08:26:01.352Z,100530.12
2022-10-25T08:29:04.445Z,100531.25
2022-10-25T08:32:06.520Z,100525.00
2022-10-25T08:35:09.148Z,100519.09
2022-10-25T08:38:11.268Z,100527.38
2022-10-25T08:41:23.692Z,100526.22
2022-10-25T08:44:51.622Z,100527.84
2022-10-25T08:47:56.544Z,100534.75
2022-10-25T08:51:04.342Z,100535.56
2022-10-25T08:54:19.642Z,100539.00
2022-10-25T08:57:24.563Z,100543.22
2022-10-25T09:00:32.348Z,100548.81
2022-10-25T09:03:34.479Z,100548.81
2022-10-25T09:07:20.317Z,100551.84
2022-10-25T09:10:41.158Z,100551.19
2022-10-25T09:13:53.040Z,100552.16
2022-10-25T09:17:07.653Z,100547.47
2022-10-25T09:20:36.562Z,100557.94
2022-10-25T09:23:41.454Z,100559.53
2022-10-25T09:27:10.644Z,100557.16
2022-10-25T09:30:13.361Z,100559.19
2022-10-25T09:33:23.420Z,100558.25
2022-10-25T09:36:29.959Z,100554.53
2022-10-25T09:39:54.859Z,100558.50
2022-10-25T09:46:25.089Z,100551.47
2022-10-25T09:50:00.109Z,100551.94
2022-10-25T09:53:15.611Z,100551.25
2022-10-25T09:56:19.855Z,100547.41
2022-10-25T09:59:22.244Z,100552.50
2022-10-25T10:02:27.079Z,100565.47
2022-10-25T10:05:30.842Z,100572.63
2022-10-25T10:08:35.369Z,100569.22
2022-10-25T10:11:37.957Z,100576.16
2022-10-25T10:14:48.409Z,100576.94
2022-10-25T10:18:19.901Z,100571.63
2022-10-25T10:21:23.969Z,100564.00
2022-10-25T10:24:30.392Z,100570.13
2022-10-25T10:27:33.940Z,100574.69
2022-10-25T10:30:38.913Z,100579.22
2022-10-25T10:33:46.929Z,100569.81
2022-10-25T10:37:21.059Z,100567.09
2022-10-25T10:40:24.631Z,100568.09
2022-10-25T10:43:32.342Z,100565.38
2022-10-25T10:46:34.635Z,100566.16
2022-10-25T10:49:40.737Z,100576.06
2022-10-25T10:52:45.793Z,100574.12
2022-10-25T10:55:52.996Z,100569.69
2022-10-25T10:58:55.253Z,100569.47
2022-10-25T11:02:09.712Z,100578.09
2022-10-25T11:05:24.326Z,100587.88
2022-10-25T11:08:27.199Z,100592.44
2022-10-25T11:11:29.398Z,100580.38
2022-10-25T11:14:31.942Z,100573.00
2022-10-25T11:17:37.665Z,100566.03
2022-10-25T11:20:45.757Z,100565.59
2022-10-25T11:23:56.758Z,100568.87
2022-10-25T11:27:02.119Z,100555.91
2022-10-25T11:30:19.895Z,100562.37
2022-10-25T11:33:35.988Z,100565.81
2022-10-25T11:36:38.040Z,100571.59
2022-10-25T11:39:51.390Z,100575.00
2022-10-25T11:43:27.038Z,100577.53
2022-10-25T11:46:41.380Z,100571.47
2022-10-25T11:49:58.629Z,100556.34
2022-10-25T11:53:07.129Z,100565.09
2022-10-25T11:56:29.247Z,100557.28
2022-10-25T11:59:55.738Z,100554.56
2022-10-25T12:03:31.041Z,100550.66
2022-10-25T12:06:57.154Z,100542.44
2022-10-25T12:10:09.835Z,100552.19
2022-10-25T12:13:19.070Z,100546.66
2022-10-25T12:16:23.604Z,100539.84
2022-10-25T12:19:28.522Z,100541.87
2022-10-25T12:22:33.239Z,100546.81
2022-10-25T12:25:41.278Z,100551.81
2022-10-25T12:28:45.877Z,100559.94
2022-10-25T12:31:58.869Z,100560.06
2022-10-25T12:35:05.066Z,100563.06
2022-10-25T12:38:15.617Z,100562.25
2022-10-25T12:41:28.062Z,100569.47
2022-10-25T12:44:51.648Z,100571.41
2022-10-25T12:47:56.345Z,100578.47
2022-10-25T12:51:36.024Z,100576.47
2022-10-25T12:54:45.568Z,100575.75
2022-10-25T12:58:08.783Z,100574.06
2022-10-25T13:01:20.797Z,100566.88
2022-10-25T13:04:32.106Z,100571.66
2022-10-25T13:07:36.440Z,100573.88
2022-10-25T13:10:45.537Z,100566.72
2022-10-25T13:13:51.758Z,100566.16
2022-10-25T13:17:16.823Z,100557.94
2022-10-25T13:23:50.086Z,100573.56
2022-10-25T13:27:18.807Z,100565.34
2022-10-25T13:30:27.377Z,100573.94
2022-10-25T13:33:33.286Z,100573.56
2022-10-25T13:36:56.316Z,100578.06
2022-10-25T13:40:05.806Z,100579.94
2022-10-25T13:43:20.394Z,100581.16
2022-10-25T13:46:31.891Z,100581.97
2022-10-25T13:49:43.716Z,100579.13
2022-10-25T13:53:06.179Z,100587.44
2022-10-25T13:56:13.729Z,100585.03
2022-10-25T13:59:49.433Z,100589.81
2022-10-25T14:03:09.869Z,100581.09
2022-10-25T14:06:22.872Z,100589.44
2022-10-25T14:09:36.309Z,100579.22
2022-10-25T14:12:42.900Z,100591.91
2022-10-25T14:15:56.141Z,100588.78
2022-10-25T14:19:06.152Z,100597.25
2022-10-25T14:22:16.074Z,100593.63
2022-10-25T14:25:18.326Z,100593.97
2022-10-25T14:28:27.191Z,100591.59
2022-10-25T14:31:29.594Z,100598.06
2022-10-25T14:34:31.795Z,100601.53
2022-10-25T14:37:41.237Z,100601.53
2022-10-25T14:40:50.842Z,100599.87
2022-10-25T14:43:54.403Z,100596.34
2022-10-25T14:46:58.371Z,100593.63
2022-10-25T14:50:01.845Z,100595.25
2022-10-25T14:53:04.473Z,100602.16
2022-10-25T14:56:07.197Z,100603.25
2022-10-25T14:59:22.037Z,100598.19
2022-10-25T15:02:31.801Z,100597.25
2022-10-25T15:05:33.954Z,100595.84
2022-10-25T15:08:39.919Z,100593.03
2022-10-25T15:12:08.032Z,100597.09
2022-10-25T15:15:33.713Z,100595.31
2022-10-25T15:18:37.864Z,100593.03
2022-10-25T15:21:45.990Z,100591.59
2022-10-25T15:24:48.973Z,100596.09
2022-10-25T15:27:56.860Z,100592.84
2022-10-25T15:31:04.980Z,100595.00
2022-10-25T15:34:12.607Z,100594.13
2022-10-25T15:37:16.836Z,100604.88
2022-10-25T15:40:19.277Z,100609.00
2022-10-25T15:43:21.366Z,100608.81
2022-10-25T15:46:33.072Z,100608.94
2022-10-25T15:49:35.162Z,100610.25
2022-10-25T15:52:37.509Z,100616.44
2022-10-25T15:55:39.598Z,100617.88
2022-10-25T15:58:41.957Z,100619.72
2022-10-25T16:01:47.264Z,100621.28
2022-10-25T16:04:49.691Z,100617.69
2022-10-25T16:07:51.818Z,100621.31
2022-10-25T16:10:54.517Z,100619.38
2022-10-25T16:13:56.779Z,100623.56
2022-10-25T16:16:59.190Z,100616.81
2022-10-25T16:20:01.258Z,100618.84
2022-10-25T16:23:03.687Z,100619.63
2022-10-25T16:26:06.137Z,100624.88
2022-10-25T16:29:15.607Z,100631.34
2022-10-25T16:32:19.425Z,100635.34
2022-10-25T16:35:24.236Z,100634.13
2022-10-25T16:38:26.324Z,100640.25
2022-10-25T16:41:31.750Z,100633.41
2022-10-25T16:44:34.985Z,100625.44
2022-10-25T16:47:37.337Z,100628.22
2022-10-25T16:50:39.436Z,100633.06
2022-10-25T16:53:42.353Z,100637.75
2022-10-25T16:56:44.442Z,100645.94
2022-10-25T16:59:46.898Z,100646.59
2022-10-25T17:02:49.287Z,100646.78
2022-10-25T17:05:52.431Z,100647.88
2022-10-25T17:08:54.547Z,100647.88
2022-10-25T17:11:56.926Z,100641.50
2022-10-25T17:14:59.011Z,100652.69
2022-10-25T17:18:01.377Z,100652.88
2022-10-25T17:21:09.918Z,100662.03
2022-10-25T17:24:12.379Z,100666.06
2022-10-25T17:27:14.478Z,100667.56
2022-10-25T17:30:16.905Z,100664.41
2022-10-25T17:33:18.981Z,100669.34
2022-10-25T17:36:21.358Z,100666.50
2022-10-25T17:39:23.490Z,100666.66
2022-10-25T17:42:26.585Z,100675.28
2022-10-25T17:45:30.328Z,100680.87
2022-10-25T17:48:33.768Z,100675.94
2022-10-25T17:51:35.934Z,100681.22
2022-10-25T17:54:39.306Z,100681.37
2022-10-25T17:57:41.424Z,100678.00
2022-10-25T18:00:43.746Z,100674.28
2022-10-25T18:03:46.242Z,100673.63
2022-10-25T18:06:48.646Z,100687.75
2022-10-25T18:09:50.959Z,100689.13
2022-10-25T18:12:53.400Z,100687.03
2022-10-25T18:16:01.146Z,100692.47
2022-10-25T18:19:05.245Z,100696.16
2022-10-25T18:22:07.591Z,100691.03
2022-10-25T18:25:09.986Z,100680.16
2022-10-25T18:28:12.337Z,100677.91
2022-10-25T18:31:14.468Z,100675.84
2022-10-25T18:34:16.930Z,100681.25
2022-10-25T18:37:18.996Z,100684.72
2022-10-25T18:40:21.466Z,100683.12
2022-10-25T18:43:25.043Z,100681.97
2022-10-25T18:46:32.453Z,100691.25
2022-10-25T18:49:34.653Z,100685.66
2022-10-25T18:52:37.001Z,100683.91
2022-10-25T18:55:44.478Z,100687.87
2022-10-25T18:58:46.847Z,100687.87
2022-10-25T19:01:48.982Z,100686.16
2022-10-25T19:04:51.389Z,100686.75
2022-10-25T19:07:53.822Z,100680.22
2022-10-25T19:10:56.166Z,100675.59
2022-10-25T19:13:58.249Z,100687.06
2022-10-25T19:17:00.596Z,100684.81
2022-10-25T19:20:03.684Z,100689.78
2022-10-25T19:23:06.845Z,100689.13
2022-10-25T19:26:12.385Z,100689.13
2022-10-25T19:29:14.781Z,100689.31
2022-10-25T19:32:16.847Z,100684.19
2022-10-25T19:35:19.310Z,100695.69
2022-10-25T19:38:21.391Z,100693.75
2022-10-25T19:41:25.601Z,100692.31
2022-10-25T19:44:27.680Z,100693.28
2022-10-25T19:47:30.216Z,100682.84
2022-10-25T19:50:33.472Z,100687.31
2022-10-25T19:53:35.834Z,100691.94
2022-10-25T19:56:39.106Z,100699.25
2022-10-25T19:59:41.480Z,100698.88
2022-10-25T20:02:43.558Z,100698.41
2022-10-25T20:05:45.902Z,100697.25
2022-10-25T20:08:48.007Z,100697.38
2022-10-25T20:11:50.370Z,100696.22
2022-10-25T20:14:52.423Z,100704.50
2022-10-25T20:17:54.743Z,100698.94
2022-10-25T20:20:59.505Z,100705.28
2022-10-25T20:24:05.174Z,100703.19
2022-10-25T20:27:07.252Z,100714.03
2022-10-25T20:30:09.683Z,100709.41
2022-10-25T20:33:11.804Z,100712.59
2022-10-25T20:36:14.454Z,100715.44
2022-10-25T20:39:16.918Z,100717.84
2022-10-25T20:42:19.282Z,100716.53
2022-10-25T20:45:21.357Z,100731.53
2022-10-25T20:48:23.750Z,100731.31
2022-10-25T20:51:26.481Z,100732.34
2022-10-25T20:54:28.907Z,100731.34
2022-10-25T20:57:30.954Z,100733.25
2022-10-25T21:00:33.699Z,100738.47
2022-10-25T21:03:36.108Z,100741.31
2022-10-25T21:06:38.467Z,100744.84
2022-10-25T21:09:40.545Z,100747.16
2022-10-25T21:12:42.933Z,100747.97
2022-10-25T21:15:47.417Z,100742.28
2022-10-25T21:18:49.770Z,100748.28
2022-10-25T21:21:51.838Z,100737.44
2022-10-25T21:24:54.189Z,100742.88
2022-10-25T21:27:56.829Z,100742.28
2022-10-25T21:31:04.494Z,100747.19
2022-10-25T21:34:06.684Z,100744.19
2022-10-25T21:37:09.040Z,100745.41
2022-10-25T21:40:11.421Z,100742.47
2022-10-25T21:43:13.748Z,100747.62
2022-10-25T21:46:17.985Z,100752.09
2022-10-25T21:49:20.367Z,100746.69
2022-10-25T21:52:22.488Z,100746.69
2022-10-25T21:55:24.826Z,100746.78
2022-10-25T21:58:27.415Z,100750.72
2022-10-25T22:01:31.182Z,100750.13
2022-10-25T22:04:34.101Z,100743.91
2022-10-25T22:07:36.167Z,100749.63
2022-10-25T22:10:38.498Z,100746.81
2022-10-25T22:13:41.180Z,100752.84
2022-10-25T22:16:43.668Z,100753.66
2022-10-25T22:19:45.755Z,100743.81
2022-10-25T22:22:48.241Z,100753.84
2022-10-25T22:25:50.477Z,100748.44
2022-10-25T22:28:58.330Z,100744.63
2022-10-25T22:32:00.380Z,100758.16
2022-10-25T22:35:02.739Z,100757.66
2022-10-25T22:38:04.891Z,100742.22
2022-10-25T22:41:12.516Z,100746.84
2022-10-25T22:44:14.647Z,100746.75
2022-10-25T22:47:17.038Z,100748.22
2022-10-25T22:50:19.142Z,100741.91
2022-10-25T22:53:21.951Z,100739.50
2022-10-25T22:56:26.414Z,100746.22
2022-10-25T22:59:28.745Z,100746.91
2022-10-25T23:02:30.826Z,100741.87
2022-10-25T23:05:33.175Z,100741.09
2022-10-25T23:08:35.279Z,100738.37
2022-10-25T23:11:39.819Z,100745.09
2022-10-25T23:14:41.902Z,100746.69
2022-10-25T23:20:56.985Z,100752.72
2022-10-25T23:24:00.412Z,100740.69
2022-10-25T23:27:02.533Z,100734.94
2022-10-25T23:30:07.640Z,100736.13
2022-10-25T23:33:13.189Z,100735.53
2022-10-25T23:36:19.363Z,100739.84
2022-10-25T23:39:21.426Z,100725.19
2022-10-25T23:42:23.759Z,100718.97
2022-10-25T23:45:27.307Z,100723.28
2022-10-25T23:48:29.705Z,100725.72
2022-10-25T23:51:31.740Z,100725.03
2022-10-25T23:54:34.080Z,100730.75
2022-10-25T23:57:36.164Z,100731.69
